Have a Safe July 4th! 

Flight Track Log - Related Links

Times and Time Zones

All times are in EDT time to prevent confusion due to time zone crossing. See the BJS542 flight status page for this flight to view local times or setup timezone preferences in your user account.

Time Position Orientation Groundspeed Altitude Reporting Facility
EDT Latitude Longitude Course Direction KTS MPH feet Rate Location/Type
Fri 05:05:20 PM 40.7667 -74.4333 114° Southeast 178 205 1,900  Level New York TRACON
Fri 05:06:21 PM 40.7500 -74.3833 114° Southeast 220 253 5,300 2,139 Climbing New York TRACON
Fri 05:07:15 PM 40.8000 -74.3500 27° Northeast 264 304 6,000 368 Climbing New York TRACON
Fri 05:08:15 PM 40.8667 -74.3000 30° Northeast 270 311 6,000  Level New York TRACON
Fri 05:09:15 PM 40.9333 -74.2667 21° North 260 299 6,000  Level New York TRACON
Fri 05:10:15 PM 41.0000 -74.2333 21° North 263 303 6,000  Level New York TRACON
Fri 05:11:15 PM 41.0667 -74.1833 29° Northeast 267 307 6,000 600 Level New York TRACON
Fri 05:12:15 PM 41.1333 -74.1500 21° North 265 305 7,200 1,900 Climbing New York TRACON
Fri 05:13:15 PM 41.1667 -74.0667 62° Northeast 285 328 9,800 1,857 Climbing New York TRACON
Fri 05:14:21 PM 41.2000 -73.9333 72° East 356 410 11,100 497 Climbing New York TRACON
Fri 05:15:52 PM 41.2403 -73.7622 73° East 378 435 11,100 834 Level Boston Center
Fri 05:16:52 PM 41.2522 -73.6164 84° East 363 418 13,200 1,900 Climbing Boston Center
Fri 05:17:52 PM 41.2597 -73.4950 85° East 363 418 14,900 1,750 Climbing Boston Center
Fri 05:18:52 PM 41.2672 -73.3458 86° East 368 423 16,700 1,050 Climbing Boston Center
Fri 05:19:52 PM 41.2767 -73.1997 85° East 377 434 17,000 150 Climbing Boston Center
Fri 05:20:52 PM 41.2836 -73.0672 86° East 393 452 17,000  Level Boston Center
Fri 05:21:52 PM 41.2928 -72.9014 86° East 403 464 17,000  Level Boston Center
Fri 05:22:52 PM 41.2975 -72.7606 87° East 412 474 17,000  Level Boston Center
Fri 05:23:52 PM 41.2936 -72.5919 92° East 417 480 17,000  Level Boston Center
Fri 05:24:52 PM 41.2814 -72.4539 97° East 423 487 17,000  Level Boston Center
Fri 05:25:52 PM 41.2686 -72.3103 97° East 423 487 17,000  Level Boston Center
Fri 05:27:04 PM 41.2494 -72.1281 98° East 423 487 17,000  Level Boston Center
Fri 05:28:04 PM 41.2303 -71.9489 98° East 418 481 17,000  Level Boston Center
Fri 05:29:04 PM 41.2169 -71.8053 97° East 404 465 17,000  Level Boston Center
Fri 05:30:04 PM 41.2036 -71.6675 97° East 409 471 17,000  Level Boston Center
Fri 05:31:04 PM 41.1856 -71.5022 98° East 409 471 17,000  Level Boston Center
Fri 05:32:04 PM 41.1719 -71.3675 98° East 409 471 17,000 -500 Level Boston Center
Fri 05:33:04 PM 41.1536 -71.2050 98° East 404 465 16,000 -1,050 Descending Boston Center
Fri 05:34:04 PM 41.1397 -71.0786 98° East 399 459 14,900 -1,250 Descending Boston Center
Fri 05:35:04 PM 41.1233 -70.9356 99° East 388 447 13,500 -1,450 Descending Boston Center
Fri 05:36:04 PM 41.1214 -70.8117 91° East 361 415 12,000 -1,650 Descending Boston Center
Fri 05:37:04 PM 41.1344 -70.6983 81° East 330 380 10,200 -1,850 Descending Boston Center
Fri 05:38:04 PM 41.1453 -70.5878 83° East 309 356 8,300 -1,900 Descending Boston Center
Fri 05:39:04 PM 41.1558 -70.4800 83° East 296 341 6,400 -2,100 Descending Boston Center
Fri 05:40:04 PM 41.1667 -70.3803 82° East 284 327 4,100 -2,200 Descending Boston Center
Fri 05:41:04 PM 41.1772 -70.2808 82° East 274 315 2,000 -1,250 Descending Boston Center
Fri 05:42:04 PM 41.1858 -70.1950 82° East 257 296 1,600 -350 Descending Boston Center
Fri 05:43:04 PM 41.2075 -70.1333 65° Northeast 213 245 1,300 -300 Descending Boston Center
Fri 05:49:00 PM 41.2531 -70.0603 252° West  Level Estimated
Fri 05:56:00 PM 41.2531 -70.0603 252° West  Level Estimated
Fri 05:57:00 PM 41.2531 -70.0603 252° West  Level Estimated
Fri 05:58:00 PM 41.2531 -70.0603 252° West  Level Estimated
Fri 05:59:00 PM 41.2531 -70.0603 252° West  Level Estimated
Fri 06:00:00 PM 41.2531 -70.0603 252° West  Level Estimated

Login

Don't have an account? Register now (free) for customized features, flight alerts, and more!